sensor_id;sensor_type;location;lat;lon;timestamp;temperature;humidity
20303;DHT22;10310;50.906;4.622;2022-08-03T00:00:58;20.30;99.90
20303;DHT22;10310;50.906;4.622;2022-08-03T00:03:25;20.30;99.90
20303;DHT22;10310;50.906;4.622;2022-08-03T00:05:52;20.30;99.90
20303;DHT22;10310;50.906;4.622;2022-08-03T00:08:20;20.20;99.90
20303;DHT22;10310;50.906;4.622;2022-08-03T00:10:47;20.20;99.90
20303;DHT22;10310;50.906;4.622;2022-08-03T00:13:14;20.20;99.90
20303;DHT22;10310;50.906;4.622;2022-08-03T00:15:41;20.20;99.90
20303;DHT22;10310;50.906;4.622;2022-08-03T00:18:09;20.20;99.90
20303;DHT22;10310;50.906;4.622;2022-08-03T00:20:36;20.20;99.90
20303;DHT22;10310;50.906;4.622;2022-08-03T00:23:03;20.20;99.90
20303;DHT22;10310;50.906;4.622;2022-08-03T00:25:32;20.20;99.90
20303;DHT22;10310;50.906;4.622;2022-08-03T00:27:59;20.20;99.90
20303;DHT22;10310;50.906;4.622;2022-08-03T00:30:26;20.20;99.90
20303;DHT22;10310;50.906;4.622;2022-08-03T00:32:53;20.10;99.90
20303;DHT22;10310;50.906;4.622;2022-08-03T00:35:20;20.20;99.90
20303;DHT22;10310;50.906;4.622;2022-08-03T00:37:47;20.10;99.90
20303;DHT22;10310;50.906;4.622;2022-08-03T00:40:15;20.10;99.90
20303;DHT22;10310;50.906;4.622;2022-08-03T00:42:51;20.10;99.90
20303;DHT22;10310;50.906;4.622;2022-08-03T00:45:19;20.00;99.90
20303;DHT22;10310;50.906;4.622;2022-08-03T00:47:47;20.00;99.90
20303;DHT22;10310;50.906;4.622;2022-08-03T00:50:15;20.00;99.90
20303;DHT22;10310;50.906;4.622;2022-08-03T00:52:42;20.00;99.90
20303;DHT22;10310;50.906;4.622;2022-08-03T00:55:10;19.90;99.90
20303;DHT22;10310;50.906;4.622;2022-08-03T00:57:38;19.90;99.90
20303;DHT22;10310;50.906;4.622;2022-08-03T01:00:09;19.90;99.90
20303;DHT22;10310;50.906;4.622;2022-08-03T01:02:37;19.90;99.90
20303;DHT22;10310;50.906;4.622;2022-08-03T01:05:05;19.90;99.90
20303;DHT22;10310;50.906;4.622;2022-08-03T01:07:40;20.00;99.90
20303;DHT22;10310;50.906;4.622;2022-08-03T01:10:13;20.00;99.90
20303;DHT22;10310;50.906;4.622;2022-08-03T01:12:47;20.00;99.90
20303;DHT22;10310;50.906;4.622;2022-08-03T01:15:26;20.00;99.90
20303;DHT22;10310;50.906;4.622;2022-08-03T01:17:58;20.00;99.90
20303;DHT22;10310;50.906;4.622;2022-08-03T01:20:31;20.00;99.90
20303;DHT22;10310;50.906;4.622;2022-08-03T01:23:30;20.00;99.90
20303;DHT22;10310;50.906;4.622;2022-08-03T01:26:26;20.00;99.90
20303;DHT22;10310;50.906;4.622;2022-08-03T01:29:12;19.90;99.90
20303;DHT22;10310;50.906;4.622;2022-08-03T01:31:54;19.90;99.90
20303;DHT22;10310;50.906;4.622;2022-08-03T01:34:25;19.80;99.90
20303;DHT22;10310;50.906;4.622;2022-08-03T01:36:55;19.80;99.90
20303;DHT22;10310;50.906;4.622;2022-08-03T01:39:23;19.70;99.90
20303;DHT22;10310;50.906;4.622;2022-08-03T01:41:55;19.70;99.90
20303;DHT22;10310;50.906;4.622;2022-08-03T01:44:25;19.60;99.90
20303;DHT22;10310;50.906;4.622;2022-08-03T01:46:56;19.60;99.90
20303;DHT22;10310;50.906;4.622;2022-08-03T01:49:24;19.60;99.90
20303;DHT22;10310;50.906;4.622;2022-08-03T01:51:53;19.60;99.90
20303;DHT22;10310;50.906;4.622;2022-08-03T01:54:22;19.60;99.90
20303;DHT22;10310;50.906;4.622;2022-08-03T01:56:51;19.60;99.90
20303;DHT22;10310;50.906;4.622;2022-08-03T01:59:21;19.50;99.90
20303;DHT22;10310;50.906;4.622;2022-08-03T02:01:48;19.50;99.90
20303;DHT22;10310;50.906;4.622;2022-08-03T02:04:17;19.50;99.90
20303;DHT22;10310;50.906;4.622;2022-08-03T02:06:45;19.50;99.90
20303;DHT22;10310;50.906;4.622;2022-08-03T02:09:13;19.40;99.90
20303;DHT22;10310;50.906;4.622;2022-08-03T02:11:41;19.40;99.90
20303;DHT22;10310;50.906;4.622;2022-08-03T02:14:09;19.40;99.90
20303;DHT22;10310;50.906;4.622;2022-08-03T02:16:36;19.40;99.90
20303;DHT22;10310;50.906;4.622;2022-08-03T02:19:05;19.40;99.90
20303;DHT22;10310;50.906;4.622;2022-08-03T02:21:36;19.40;99.90
20303;DHT22;10310;50.906;4.622;2022-08-03T02:24:03;19.40;99.90
20303;DHT22;10310;50.906;4.622;2022-08-03T02:26:32;19.40;99.90
20303;DHT22;10310;50.906;4.622;2022-08-03T02:29:05;19.40;99.90
20303;DHT22;10310;50.906;4.622;2022-08-03T02:31:35;19.30;99.90
20303;DHT22;10310;50.906;4.622;2022-08-03T02:34:07;19.30;99.90
20303;DHT22;10310;50.906;4.622;2022-08-03T02:36:38;19.20;99.90
20303;DHT22;10310;50.906;4.622;2022-08-03T02:39:06;19.20;99.90
20303;DHT22;10310;50.906;4.622;2022-08-03T02:41:44;19.20;99.90
20303;DHT22;10310;50.906;4.622;2022-08-03T02:44:11;19.10;99.90
20303;DHT22;10310;50.906;4.622;2022-08-03T02:46:42;19.10;99.90
20303;DHT22;10310;50.906;4.622;2022-08-03T02:49:13;19.10;99.90
20303;DHT22;10310;50.906;4.622;2022-08-03T02:51:43;19.10;99.90
20303;DHT22;10310;50.906;4.622;2022-08-03T02:54:11;19.00;99.90
20303;DHT22;10310;50.906;4.622;2022-08-03T02:56:42;19.10;99.90
20303;DHT22;10310;50.906;4.622;2022-08-03T02:59:11;19.10;99.90
20303;DHT22;10310;50.906;4.622;2022-08-03T03:01:39;19.10;99.90
20303;DHT22;10310;50.906;4.622;2022-08-03T03:04:07;19.00;99.90
20303;DHT22;10310;50.906;4.622;2022-08-03T03:06:37;19.00;99.90
20303;DHT22;10310;50.906;4.622;2022-08-03T03:09:07;18.90;99.90
20303;DHT22;10310;50.906;4.622;2022-08-03T03:11:35;18.90;99.90
20303;DHT22;10310;50.906;4.622;2022-08-03T03:14:03;18.80;99.90
20303;DHT22;10310;50.906;4.622;2022-08-03T03:16:31;18.80;99.90
20303;DHT22;10310;50.906;4.622;2022-08-03T03:18:59;18.70;99.90
20303;DHT22;10310;50.906;4.622;2022-08-03T03:21:28;18.70;99.90
20303;DHT22;10310;50.906;4.622;2022-08-03T03:23:57;18.60;99.90
20303;DHT22;10310;50.906;4.622;2022-08-03T03:26:26;18.50;99.90
20303;DHT22;10310;50.906;4.622;2022-08-03T03:28:54;18.50;99.90
20303;DHT22;10310;50.906;4.622;2022-08-03T03:31:21;18.50;99.90
20303;DHT22;10310;50.906;4.622;2022-08-03T03:33:48;18.40;99.90
20303;DHT22;10310;50.906;4.622;2022-08-03T03:36:15;18.40;99.90
20303;DHT22;10310;50.906;4.622;2022-08-03T03:38:42;18.30;99.90
20303;DHT22;10310;50.906;4.622;2022-08-03T03:41:09;18.30;99.90
20303;DHT22;10310;50.906;4.622;2022-08-03T03:43:38;18.30;99.90
20303;DHT22;10310;50.906;4.622;2022-08-03T03:46:05;18.40;99.90
20303;DHT22;10310;50.906;4.622;2022-08-03T03:48:32;18.30;99.90
20303;DHT22;10310;50.906;4.622;2022-08-03T03:51:00;18.30;99.90
20303;DHT22;10310;50.906;4.622;2022-08-03T03:53:27;18.30;99.90
20303;DHT22;10310;50.906;4.622;2022-08-03T03:55:54;18.30;99.90
20303;DHT22;10310;50.906;4.622;2022-08-03T03:58:21;18.20;99.90
20303;DHT22;10310;50.906;4.622;2022-08-03T04:00:49;18.20;99.90
20303;DHT22;10310;50.906;4.622;2022-08-03T04:03:18;18.20;99.90
20303;DHT22;10310;50.906;4.622;2022-08-03T04:05:45;18.20;99.90
20303;DHT22;10310;50.906;4.622;2022-08-03T04:08:29;18.20;99.90
20303;DHT22;10310;50.906;4.622;2022-08-03T04:11:17;18.20;99.90
20303;DHT22;10310;50.906;4.622;2022-08-03T04:13:48;18.20;99.90
20303;DHT22;10310;50.906;4.622;2022-08-03T04:16:18;18.20;99.90
20303;DHT22;10310;50.906;4.622;2022-08-03T04:18:50;18.20;99.90
20303;DHT22;10310;50.906;4.622;2022-08-03T04:21:18;18.30;99.90
20303;DHT22;10310;50.906;4.622;2022-08-03T04:23:50;18.30;99.90
20303;DHT22;10310;50.906;4.622;2022-08-03T04:26:19;18.40;99.90
20303;DHT22;10310;50.906;4.622;2022-08-03T04:28:48;18.40;99.90
20303;DHT22;10310;50.906;4.622;2022-08-03T04:31:19;18.50;99.90
20303;DHT22;10310;50.906;4.622;2022-08-03T04:33:47;18.50;99.90
20303;DHT22;10310;50.906;4.622;2022-08-03T04:36:18;18.50;99.90
20303;DHT22;10310;50.906;4.622;2022-08-03T04:38:54;18.50;99.90
20303;DHT22;10310;50.906;4.622;2022-08-03T04:41:24;18.50;99.90
20303;DHT22;10310;50.906;4.622;2022-08-03T04:43:53;18.60;99.90
20303;DHT22;10310;50.906;4.622;2022-08-03T04:46:24;18.60;99.90
20303;DHT22;10310;50.906;4.622;2022-08-03T04:48:52;18.60;99.90
20303;DHT22;10310;50.906;4.622;2022-08-03T04:51:19;18.60;99.90
20303;DHT22;10310;50.906;4.622;2022-08-03T04:53:46;18.70;99.90
20303;DHT22;10310;50.906;4.622;2022-08-03T04:56:13;18.70;99.90
20303;DHT22;10310;50.906;4.622;2022-08-03T04:58:40;18.80;99.90
20303;DHT22;10310;50.906;4.622;2022-08-03T05:01:07;18.90;99.90
20303;DHT22;10310;50.906;4.622;2022-08-03T05:03:35;19.00;99.90
20303;DHT22;10310;50.906;4.622;2022-08-03T05:06:02;19.00;99.90
20303;DHT22;10310;50.906;4.622;2022-08-03T05:08:29;19.10;99.90
20303;DHT22;10310;50.906;4.622;2022-08-03T05:10:56;19.20;99.90
20303;DHT22;10310;50.906;4.622;2022-08-03T05:13:23;19.20;99.90
20303;DHT22;10310;50.906;4.622;2022-08-03T05:15:50;19.30;99.90
20303;DHT22;10310;50.906;4.622;2022-08-03T05:18:17;19.40;99.90
20303;DHT22;10310;50.906;4.622;2022-08-03T05:20:45;19.40;99.90
20303;DHT22;10310;50.906;4.622;2022-08-03T05:23:12;19.50;99.90
20303;DHT22;10310;50.906;4.622;2022-08-03T05:25:39;19.60;99.90
20303;DHT22;10310;50.906;4.622;2022-08-03T05:28:06;19.70;99.90
20303;DHT22;10310;50.906;4.622;2022-08-03T05:30:33;19.80;99.90
20303;DHT22;10310;50.906;4.622;2022-08-03T05:33:01;19.90;99.90
20303;DHT22;10310;50.906;4.622;2022-08-03T05:35:28;20.00;99.90
20303;DHT22;10310;50.906;4.622;2022-08-03T05:37:56;20.10;99.90
20303;DHT22;10310;50.906;4.622;2022-08-03T05:40:23;20.20;99.90
20303;DHT22;10310;50.906;4.622;2022-08-03T05:42:50;20.30;99.90
20303;DHT22;10310;50.906;4.622;2022-08-03T05:45:17;20.40;99.90
20303;DHT22;10310;50.906;4.622;2022-08-03T05:47:44;20.50;99.90
20303;DHT22;10310;50.906;4.622;2022-08-03T05:50:12;20.70;99.90
20303;DHT22;10310;50.906;4.622;2022-08-03T05:52:40;20.80;99.90
20303;DHT22;10310;50.906;4.622;2022-08-03T05:55:10;20.90;99.90
20303;DHT22;10310;50.906;4.622;2022-08-03T05:57:37;21.00;99.90
20303;DHT22;10310;50.906;4.622;2022-08-03T06:00:06;21.10;99.90
20303;DHT22;10310;50.906;4.622;2022-08-03T06:02:33;21.20;99.90
20303;DHT22;10310;50.906;4.622;2022-08-03T06:05:00;21.30;99.90
20303;DHT22;10310;50.906;4.622;2022-08-03T06:07:27;21.40;99.90
20303;DHT22;10310;50.906;4.622;2022-08-03T06:09:54;21.50;99.90
20303;DHT22;10310;50.906;4.622;2022-08-03T06:12:23;21.70;99.90
20303;DHT22;10310;50.906;4.622;2022-08-03T06:14:50;21.70;99.90
20303;DHT22;10310;50.906;4.622;2022-08-03T06:17:17;21.80;99.90
20303;DHT22;10310;50.906;4.622;2022-08-03T06:19:44;21.90;99.90
20303;DHT22;10310;50.906;4.622;2022-08-03T06:22:10;22.00;99.90
20303;DHT22;10310;50.906;4.622;2022-08-03T06:24:37;22.00;99.90
20303;DHT22;10310;50.906;4.622;2022-08-03T06:27:04;22.10;99.90
20303;DHT22;10310;50.906;4.622;2022-08-03T06:29:32;22.20;99.90
20303;DHT22;10310;50.906;4.622;2022-08-03T06:31:59;22.30;99.90
20303;DHT22;10310;50.906;4.622;2022-08-03T06:34:26;22.30;99.90
20303;DHT22;10310;50.906;4.622;2022-08-03T06:36:53;22.40;99.90
20303;DHT22;10310;50.906;4.622;2022-08-03T06:39:20;22.40;99.90
20303;DHT22;10310;50.906;4.622;2022-08-03T06:41:47;22.60;99.90
20303;DHT22;10310;50.906;4.622;2022-08-03T06:44:14;22.50;99.90
20303;DHT22;10310;50.906;4.622;2022-08-03T06:46:42;22.50;99.90
20303;DHT22;10310;50.906;4.622;2022-08-03T06:49:09;22.40;99.90
20303;DHT22;10310;50.906;4.622;2022-08-03T06:51:36;22.50;99.90
20303;DHT22;10310;50.906;4.622;2022-08-03T06:54:03;22.50;99.90
20303;DHT22;10310;50.906;4.622;2022-08-03T06:56:30;22.60;99.90
20303;DHT22;10310;50.906;4.622;2022-08-03T06:58:57;22.60;99.90
20303;DHT22;10310;50.906;4.622;2022-08-03T07:01:23;22.80;99.90
20303;DHT22;10310;50.906;4.622;2022-08-03T07:03:52;22.90;99.90
20303;DHT22;10310;50.906;4.622;2022-08-03T07:06:19;23.00;99.90
20303;DHT22;10310;50.906;4.622;2022-08-03T07:08:46;23.10;99.90
20303;DHT22;10310;50.906;4.622;2022-08-03T07:11:13;23.20;99.90
20303;DHT22;10310;50.906;4.622;2022-08-03T07:13:42;23.40;99.90
20303;DHT22;10310;50.906;4.622;2022-08-03T07:16:09;23.60;99.90
20303;DHT22;10310;50.906;4.622;2022-08-03T07:18:37;23.70;99.90
20303;DHT22;10310;50.906;4.622;2022-08-03T07:21:05;23.80;99.90
20303;DHT22;10310;50.906;4.622;2022-08-03T07:23:33;24.00;99.90
20303;DHT22;10310;50.906;4.622;2022-08-03T07:26:00;24.10;99.90
20303;DHT22;10310;50.906;4.622;2022-08-03T07:28:27;24.30;99.90
20303;DHT22;10310;50.906;4.622;2022-08-03T07:30:54;24.40;99.90
20303;DHT22;10310;50.906;4.622;2022-08-03T07:33:21;24.60;99.90
20303;DHT22;10310;50.906;4.622;2022-08-03T07:35:48;24.70;99.90
20303;DHT22;10310;50.906;4.622;2022-08-03T07:38:16;24.80;99.90
20303;DHT22;10310;50.906;4.622;2022-08-03T07:40:43;24.80;99.90
20303;DHT22;10310;50.906;4.622;2022-08-03T07:43:10;24.90;99.90
20303;DHT22;10310;50.906;4.622;2022-08-03T07:45:37;25.00;99.90
20303;DHT22;10310;50.906;4.622;2022-08-03T07:48:04;25.10;99.90
20303;DHT22;10310;50.906;4.622;2022-08-03T07:50:31;25.20;99.90
20303;DHT22;10310;50.906;4.622;2022-08-03T07:52:57;25.30;99.90
20303;DHT22;10310;50.906;4.622;2022-08-03T07:55:26;25.40;99.90
20303;DHT22;10310;50.906;4.622;2022-08-03T07:58:05;25.40;99.90
20303;DHT22;10310;50.906;4.622;2022-08-03T08:00:34;25.40;99.90
20303;DHT22;10310;50.906;4.622;2022-08-03T08:03:01;25.50;99.90
20303;DHT22;10310;50.906;4.622;2022-08-03T08:05:28;25.60;99.90
20303;DHT22;10310;50.906;4.622;2022-08-03T08:07:55;25.70;99.90
20303;DHT22;10310;50.906;4.622;2022-08-03T08:10:22;25.70;99.90
20303;DHT22;10310;50.906;4.622;2022-08-03T08:12:51;25.90;99.90
20303;DHT22;10310;50.906;4.622;2022-08-03T08:15:18;25.90;99.90
20303;DHT22;10310;50.906;4.622;2022-08-03T08:17:47;26.00;99.90
20303;DHT22;10310;50.906;4.622;2022-08-03T08:20:16;26.10;99.90
20303;DHT22;10310;50.906;4.622;2022-08-03T08:22:43;26.20;99.90
20303;DHT22;10310;50.906;4.622;2022-08-03T08:25:11;26.30;99.90
20303;DHT22;10310;50.906;4.622;2022-08-03T08:27:42;26.40;99.90
20303;DHT22;10310;50.906;4.622;2022-08-03T08:30:12;26.50;99.90
20303;DHT22;10310;50.906;4.622;2022-08-03T08:32:40;26.50;99.90
20303;DHT22;10310;50.906;4.622;2022-08-03T08:35:08;26.60;99.90
20303;DHT22;10310;50.906;4.622;2022-08-03T08:37:36;26.70;99.90
20303;DHT22;10310;50.906;4.622;2022-08-03T08:40:04;26.80;99.90
20303;DHT22;10310;50.906;4.622;2022-08-03T08:42:31;26.80;99.90
20303;DHT22;10310;50.906;4.622;2022-08-03T08:44:59;26.90;99.90
20303;DHT22;10310;50.906;4.622;2022-08-03T08:47:29;26.90;99.90
20303;DHT22;10310;50.906;4.622;2022-08-03T08:49:57;27.00;99.90
20303;DHT22;10310;50.906;4.622;2022-08-03T08:52:26;27.00;99.90
20303;DHT22;10310;50.906;4.622;2022-08-03T08:54:55;27.10;99.90
20303;DHT22;10310;50.906;4.622;2022-08-03T08:57:27;27.20;99.90
20303;DHT22;10310;50.906;4.622;2022-08-03T08:59:54;27.20;99.90
20303;DHT22;10310;50.906;4.622;2022-08-03T09:02:22;27.40;99.90
20303;DHT22;10310;50.906;4.622;2022-08-03T09:04:50;27.50;99.90
20303;DHT22;10310;50.906;4.622;2022-08-03T09:07:17;27.60;99.90
20303;DHT22;10310;50.906;4.622;2022-08-03T09:09:44;27.80;99.90
20303;DHT22;10310;50.906;4.622;2022-08-03T09:12:11;27.90;99.90
20303;DHT22;10310;50.906;4.622;2022-08-03T09:14:38;28.00;99.90
20303;DHT22;10310;50.906;4.622;2022-08-03T09:17:05;28.10;99.90
20303;DHT22;10310;50.906;4.622;2022-08-03T09:19:33;28.10;99.90
20303;DHT22;10310;50.906;4.622;2022-08-03T09:22:09;28.20;99.90
20303;DHT22;10310;50.906;4.622;2022-08-03T09:24:37;28.30;99.90
20303;DHT22;10310;50.906;4.622;2022-08-03T09:27:06;28.20;99.90
20303;DHT22;10310;50.906;4.622;2022-08-03T09:29:37;28.30;99.90
20303;DHT22;10310;50.906;4.622;2022-08-03T09:32:04;28.50;99.90
20303;DHT22;10310;50.906;4.622;2022-08-03T09:34:31;28.60;99.90
20303;DHT22;10310;50.906;4.622;2022-08-03T09:36:58;28.70;99.90
20303;DHT22;10310;50.906;4.622;2022-08-03T09:39:27;28.80;99.90
20303;DHT22;10310;50.906;4.622;2022-08-03T09:42:07;28.80;99.90
20303;DHT22;10310;50.906;4.622;2022-08-03T09:44:35;28.90;99.90
20303;DHT22;10310;50.906;4.622;2022-08-03T09:47:03;28.90;99.90
20303;DHT22;10310;50.906;4.622;2022-08-03T09:49:31;28.80;99.90
20303;DHT22;10310;50.906;4.622;2022-08-03T09:52:01;28.80;99.90
20303;DHT22;10310;50.906;4.622;2022-08-03T09:54:39;28.90;99.90
20303;DHT22;10310;50.906;4.622;2022-08-03T09:57:06;29.20;99.90
20303;DHT22;10310;50.906;4.622;2022-08-03T09:59:34;29.40;99.90
20303;DHT22;10310;50.906;4.622;2022-08-03T10:02:01;29.30;99.90
20303;DHT22;10310;50.906;4.622;2022-08-03T10:04:28;29.40;99.90
20303;DHT22;10310;50.906;4.622;2022-08-03T10:07:04;29.50;99.90
20303;DHT22;10310;50.906;4.622;2022-08-03T10:09:31;29.50;99.90
20303;DHT22;10310;50.906;4.622;2022-08-03T10:12:06;29.30;99.90
20303;DHT22;10310;50.906;4.622;2022-08-03T10:14:35;29.40;99.90
20303;DHT22;10310;50.906;4.622;2022-08-03T10:17:02;29.60;99.90
20303;DHT22;10310;50.906;4.622;2022-08-03T10:19:29;29.70;99.90
20303;DHT22;10310;50.906;4.622;2022-08-03T10:22:00;29.70;99.90
20303;DHT22;10310;50.906;4.622;2022-08-03T10:24:29;29.80;99.90
20303;DHT22;10310;50.906;4.622;2022-08-03T10:27:03;30.10;99.90
20303;DHT22;10310;50.906;4.622;2022-08-03T10:29:36;30.30;99.90
20303;DHT22;10310;50.906;4.622;2022-08-03T10:32:05;30.30;99.90
20303;DHT22;10310;50.906;4.622;2022-08-03T10:34:38;30.30;99.90
20303;DHT22;10310;50.906;4.622;2022-08-03T10:37:09;30.20;99.90
20303;DHT22;10310;50.906;4.622;2022-08-03T10:39:36;30.20;99.90
20303;DHT22;10310;50.906;4.622;2022-08-03T10:42:05;30.30;99.90
20303;DHT22;10310;50.906;4.622;2022-08-03T10:44:37;30.30;99.90
20303;DHT22;10310;50.906;4.622;2022-08-03T10:47:06;30.50;99.90
20303;DHT22;10310;50.906;4.622;2022-08-03T10:49:33;30.80;99.90
20303;DHT22;10310;50.906;4.622;2022-08-03T10:52:00;30.80;99.90
20303;DHT22;10310;50.906;4.622;2022-08-03T10:54:40;30.70;99.90
20303;DHT22;10310;50.906;4.622;2022-08-03T10:57:49;30.70;99.90
20303;DHT22;10310;50.906;4.622;2022-08-03T11:00:18;30.80;99.90
20303;DHT22;10310;50.906;4.622;2022-08-03T11:03:06;30.90;99.90
20303;DHT22;10310;50.906;4.622;2022-08-03T11:05:36;30.70;99.90
20303;DHT22;10310;50.906;4.622;2022-08-03T11:08:27;31.00;99.90
20303;DHT22;10310;50.906;4.622;2022-08-03T11:10:57;30.80;99.90
20303;DHT22;10310;50.906;4.622;2022-08-03T11:13:27;31.20;99.70
20303;DHT22;10310;50.906;4.622;2022-08-03T11:15:58;31.30;99.60
20303;DHT22;10310;50.906;4.622;2022-08-03T11:18:26;31.30;99.10
20303;DHT22;10310;50.906;4.622;2022-08-03T11:20:54;31.40;99.10
20303;DHT22;10310;50.906;4.622;2022-08-03T11:23:40;31.30;98.90
20303;DHT22;10310;50.906;4.622;2022-08-03T11:26:09;31.30;99.10
20303;DHT22;10310;50.906;4.622;2022-08-03T11:28:38;31.40;98.90
20303;DHT22;10310;50.906;4.622;2022-08-03T11:31:43;31.30;98.60
20303;DHT22;10310;50.906;4.622;2022-08-03T11:34:13;31.40;99.10
20303;DHT22;10310;50.906;4.622;2022-08-03T11:37:18;31.50;98.80
20303;DHT22;10310;50.906;4.622;2022-08-03T11:39:47;31.70;98.80
20303;DHT22;10310;50.906;4.622;2022-08-03T11:42:42;31.90;98.60
20303;DHT22;10310;50.906;4.622;2022-08-03T11:45:16;31.90;97.60
20303;DHT22;10310;50.906;4.622;2022-08-03T11:47:44;31.40;98.30
20303;DHT22;10310;50.906;4.622;2022-08-03T11:50:11;31.50;98.30
20303;DHT22;10310;50.906;4.622;2022-08-03T11:52:39;31.60;98.30
20303;DHT22;10310;50.906;4.622;2022-08-03T11:55:11;31.80;98.20
20303;DHT22;10310;50.906;4.622;2022-08-03T11:57:39;32.00;97.80
20303;DHT22;10310;50.906;4.622;2022-08-03T12:00:23;32.10;97.80
20303;DHT22;10310;50.906;4.622;2022-08-03T12:03:02;32.10;97.40
20303;DHT22;10310;50.906;4.622;2022-08-03T12:05:40;32.00;97.80
20303;DHT22;10310;50.906;4.622;2022-08-03T12:08:08;32.10;97.40
20303;DHT22;10310;50.906;4.622;2022-08-03T12:10:35;32.30;97.30
20303;DHT22;10310;50.906;4.622;2022-08-03T12:13:04;32.50;97.90
20303;DHT22;10310;50.906;4.622;2022-08-03T12:15:35;32.70;97.30
20303;DHT22;10310;50.906;4.622;2022-08-03T12:18:10;32.80;96.90
20303;DHT22;10310;50.906;4.622;2022-08-03T12:20:38;32.50;96.90
20303;DHT22;10310;50.906;4.622;2022-08-03T12:23:05;32.30;96.70
20303;DHT22;10310;50.906;4.622;2022-08-03T12:25:33;32.40;96.90
20303;DHT22;10310;50.906;4.622;2022-08-03T12:28:12;32.50;96.90
20303;DHT22;10310;50.906;4.622;2022-08-03T12:30:43;32.70;96.70
20303;DHT22;10310;50.906;4.622;2022-08-03T12:33:15;32.60;96.30
20303;DHT22;10310;50.906;4.622;2022-08-03T12:35:44;32.40;96.60
20303;DHT22;10310;50.906;4.622;2022-08-03T12:38:11;32.40;96.30
20303;DHT22;10310;50.906;4.622;2022-08-03T12:40:39;32.30;96.00
20303;DHT22;10310;50.906;4.622;2022-08-03T12:43:12;32.00;96.40
20303;DHT22;10310;50.906;4.622;2022-08-03T12:45:39;32.10;96.10
20303;DHT22;10310;50.906;4.622;2022-08-03T12:48:09;32.10;96.70
20303;DHT22;10310;50.906;4.622;2022-08-03T12:50:39;32.40;96.00
20303;DHT22;10310;50.906;4.622;2022-08-03T12:53:07;32.80;95.80
20303;DHT22;10310;50.906;4.622;2022-08-03T12:55:35;32.60;95.60
20303;DHT22;10310;50.906;4.622;2022-08-03T12:58:05;33.10;95.50
20303;DHT22;10310;50.906;4.622;2022-08-03T13:00:35;32.90;94.90
20303;DHT22;10310;50.906;4.622;2022-08-03T13:03:04;32.50;95.40
20303;DHT22;10310;50.906;4.622;2022-08-03T13:05:41;32.50;95.50
20303;DHT22;10310;50.906;4.622;2022-08-03T13:08:17;32.70;94.90
20303;DHT22;10310;50.906;4.622;2022-08-03T13:10:45;33.30;94.30
20303;DHT22;10310;50.906;4.622;2022-08-03T13:13:12;33.10;94.40
20303;DHT22;10310;50.906;4.622;2022-08-03T13:15:39;33.20;95.00
20303;DHT22;10310;50.906;4.622;2022-08-03T13:18:06;33.80;94.40
20303;DHT22;10310;50.906;4.622;2022-08-03T13:20:35;33.80;94.60
20303;DHT22;10310;50.906;4.622;2022-08-03T13:23:02;34.40;93.90
20303;DHT22;10310;50.906;4.622;2022-08-03T13:25:28;34.40;93.30
20303;DHT22;10310;50.906;4.622;2022-08-03T13:27:55;34.40;92.80
20303;DHT22;10310;50.906;4.622;2022-08-03T13:30:22;34.00;93.10
20303;DHT22;10310;50.906;4.622;2022-08-03T13:32:49;33.70;93.40
20303;DHT22;10310;50.906;4.622;2022-08-03T13:35:16;33.60;93.40
20303;DHT22;10310;50.906;4.622;2022-08-03T13:37:44;33.60;93.40
20303;DHT22;10310;50.906;4.622;2022-08-03T13:40:12;33.80;93.30
20303;DHT22;10310;50.906;4.622;2022-08-03T13:42:39;34.20;93.30
20303;DHT22;10310;50.906;4.622;2022-08-03T13:45:06;34.40;92.60
20303;DHT22;10310;50.906;4.622;2022-08-03T13:47:34;35.00;92.10
20303;DHT22;10310;50.906;4.622;2022-08-03T13:50:01;35.90;91.40
20303;DHT22;10310;50.906;4.622;2022-08-03T13:52:32;36.80;90.20
20303;DHT22;10310;50.906;4.622;2022-08-03T13:55:02;37.40;89.10
20303;DHT22;10310;50.906;4.622;2022-08-03T13:57:30;37.90;86.70
20303;DHT22;10310;50.906;4.622;2022-08-03T13:59:56;38.60;84.80
20303;DHT22;10310;50.906;4.622;2022-08-03T14:02:23;39.30;82.40
20303;DHT22;10310;50.906;4.622;2022-08-03T14:04:50;40.10;79.30
20303;DHT22;10310;50.906;4.622;2022-08-03T14:07:19;39.40;78.50
20303;DHT22;10310;50.906;4.622;2022-08-03T14:09:45;38.30;79.60
20303;DHT22;10310;50.906;4.622;2022-08-03T14:12:14;38.50;79.90
20303;DHT22;10310;50.906;4.622;2022-08-03T14:14:41;39.60;77.90
20303;DHT22;10310;50.906;4.622;2022-08-03T14:17:07;40.90;75.00
20303;DHT22;10310;50.906;4.622;2022-08-03T14:19:34;41.40;73.00
20303;DHT22;10310;50.906;4.622;2022-08-03T14:22:02;41.10;71.70
20303;DHT22;10310;50.906;4.622;2022-08-03T14:24:29;40.50;72.10
20303;DHT22;10310;50.906;4.622;2022-08-03T14:26:56;40.80;71.50
20303;DHT22;10310;50.906;4.622;2022-08-03T14:29:24;41.60;69.10
20303;DHT22;10310;50.906;4.622;2022-08-03T14:31:51;42.10;68.10
20303;DHT22;10310;50.906;4.622;2022-08-03T14:34:18;42.20;67.30
20303;DHT22;10310;50.906;4.622;2022-08-03T14:36:45;42.40;65.00
20303;DHT22;10310;50.906;4.622;2022-08-03T14:39:12;42.20;64.10
20303;DHT22;10310;50.906;4.622;2022-08-03T14:41:38;42.50;63.00
20303;DHT22;10310;50.906;4.622;2022-08-03T14:44:05;43.00;62.00
20303;DHT22;10310;50.906;4.622;2022-08-03T14:46:34;43.50;61.20
20303;DHT22;10310;50.906;4.622;2022-08-03T14:49:02;43.30;60.20
20303;DHT22;10310;50.906;4.622;2022-08-03T14:51:29;42.80;59.80
20303;DHT22;10310;50.906;4.622;2022-08-03T14:53:56;41.80;59.80
20303;DHT22;10310;50.906;4.622;2022-08-03T14:56:23;41.80;59.80
20303;DHT22;10310;50.906;4.622;2022-08-03T14:58:50;42.80;59.20
20303;DHT22;10310;50.906;4.622;2022-08-03T15:01:17;43.80;58.20
20303;DHT22;10310;50.906;4.622;2022-08-03T15:03:45;44.20;57.70
20303;DHT22;10310;50.906;4.622;2022-08-03T15:06:13;42.70;57.50
20303;DHT22;10310;50.906;4.622;2022-08-03T15:08:40;41.30;58.70
20303;DHT22;10310;50.906;4.622;2022-08-03T15:11:07;39.60;59.90
20303;DHT22;10310;50.906;4.622;2022-08-03T15:13:34;38.70;61.40
20303;DHT22;10310;50.906;4.622;2022-08-03T15:16:00;38.60;60.90
20303;DHT22;10310;50.906;4.622;2022-08-03T15:18:27;38.40;61.80
20303;DHT22;10310;50.906;4.622;2022-08-03T15:20:56;39.90;61.30
20303;DHT22;10310;50.906;4.622;2022-08-03T15:23:22;41.30;59.30
20303;DHT22;10310;50.906;4.622;2022-08-03T15:25:50;41.70;58.50
20303;DHT22;10310;50.906;4.622;2022-08-03T15:28:17;42.30;57.60
20303;DHT22;10310;50.906;4.622;2022-08-03T15:30:44;42.30;57.40
20303;DHT22;10310;50.906;4.622;2022-08-03T15:33:11;42.50;57.00
20303;DHT22;10310;50.906;4.622;2022-08-03T15:35:38;42.10;57.40
20303;DHT22;10310;50.906;4.622;2022-08-03T15:38:07;43.50;56.10
20303;DHT22;10310;50.906;4.622;2022-08-03T15:40:34;44.10;55.70
20303;DHT22;10310;50.906;4.622;2022-08-03T15:43:01;44.60;54.90